Time;durP1;ratioP1;P1;durP2;ratioP2;P2;SDS_P1;SDS_P2;PMS_P1;PMS_P2;Temp;Humidity;BMP_temperature;BMP_pressure;BME280_temperature;BME280_humidity;BME280_pressure;Samples;Min_cycle;Max_cycle;Signal;HPM_P1;HPM_P2
2021/08/17 00:00:41;;;;;;;4.55;2.15;;;;;;;13.29;82.97;99995.31;4994342;28;20117;-71
2021/08/17 00:03:07;;;;;;;4.63;1.95;;;;;;;13.24;83.04;99986.31;4994791;28;20038;-70
2021/08/17 00:05:33;;;;;;;4.35;1.92;;;;;;;13.25;83.02;99986.09;4993796;28;20574;-70
2021/08/17 00:08:02;;;;;;;5.90;1.70;;;;;;;13.28;82.88;99984.78;4994300;28;20031;-71
2021/08/17 00:10:27;;;;;;;3.45;1.75;;;;;;;13.29;82.71;99981.78;4993573;28;20600;-70
2021/08/17 00:12:53;;;;;;;3.45;1.52;;;;;;;13.23;83.16;99982.81;4994145;28;20026;-71
2021/08/17 00:15:19;;;;;;;2.75;1.60;;;;;;;13.27;83.05;99977.72;4994281;28;20035;-70
2021/08/17 00:17:45;;;;;;;5.30;1.90;;;;;;;13.23;83.24;99982.81;4994030;28;20449;-71
2021/08/17 00:20:11;;;;;;;4.93;1.58;;;;;;;13.35;82.93;99979.16;4994531;28;20504;-71
2021/08/17 00:22:37;;;;;;;2.15;1.30;;;;;;;13.37;82.92;99982.41;4994446;28;20030;-71
2021/08/17 00:25:04;;;;;;;2.58;1.48;;;;;;;13.25;83.50;99985.25;4994344;28;20038;-70
2021/08/17 00:27:30;;;;;;;2.28;1.40;;;;;;;13.18;84.17;99991.69;4993982;28;20031;-70
2021/08/17 00:29:55;;;;;;;5.85;1.70;;;;;;;13.30;83.87;99988.03;4993532;28;20057;-70
2021/08/17 00:32:24;;;;;;;3.45;1.70;;;;;;;13.25;84.94;99988.78;4994014;28;20034;-71
2021/08/17 00:34:50;;;;;;;2.40;1.48;;;;;;;13.17;85.32;99986.53;4994382;28;20041;-71
2021/08/17 00:37:17;;;;;;;3.22;1.90;;;;;;;13.06;86.45;99984.78;4993446;28;20130;-70
2021/08/17 00:39:44;;;;;;;3.38;1.75;;;;;;;12.95;87.12;99981.13;4976433;28;20038;-70
2021/08/17 00:42:10;;;;;;;6.28;2.00;;;;;;;12.91;88.30;99971.91;4993822;28;20041;-71
2021/08/17 00:44:36;;;;;;;5.00;2.33;;;;;;;12.93;89.06;99980.56;4993759;28;20160;-70
2021/08/17 00:47:02;;;;;;;4.43;2.33;;;;;;;12.89;89.12;99972.16;4993364;28;20489;-71
2021/08/17 00:49:28;;;;;;;3.50;2.00;;;;;;;12.79;89.81;99962.03;4993664;28;20090;-70
2021/08/17 00:52:07;;;;;;;5.10;2.35;;;;;;;12.70;90.60;99961.69;4976442;28;20041;-71
2021/08/17 00:54:38;;;;;;;4.05;2.03;;;;;;;12.68;90.40;99954.88;4993865;28;20039;-70
2021/08/17 00:57:03;;;;;;;4.95;2.50;;;;;;;12.62;90.93;99954.00;4993337;28;20038;-70
2021/08/17 00:59:31;;;;;;;4.25;2.60;;;;;;;12.56;91.25;99950.41;4992124;28;20042;-71
2021/08/17 01:01:57;;;;;;;7.45;2.80;;;;;;;12.53;91.49;99953.63;4975859;28;20035;-71
2021/08/17 01:04:23;;;;;;;6.07;2.80;;;;;;;12.56;90.99;99945.00;4993711;28;20049;-70
2021/08/17 01:06:49;;;;;;;4.00;2.30;;;;;;;12.56;91.40;99953.13;4992981;28;20063;-71
2021/08/17 01:09:15;;;;;;;6.47;2.90;;;;;;;12.55;91.19;99943.38;4993106;28;20045;-70
2021/08/17 01:11:45;;;;;;;4.53;2.85;;;;;;;12.63;90.89;99949.41;4993391;28;20093;-70
2021/08/17 01:14:13;;;;;;;3.75;2.75;;;;;;;12.64;91.13;99943.75;4992965;28;20376;-71
2021/08/17 01:16:38;;;;;;;7.82;3.08;;;;;;;12.69;90.40;99940.28;4993233;28;20042;-70
2021/08/17 01:19:04;;;;;;;4.45;2.50;;;;;;;12.73;89.81;99949.53;4993017;28;20397;-71
2021/08/17 01:21:30;;;;;;;5.40;2.47;;;;;;;12.73;90.19;99944.97;4993192;28;20026;-71
2021/08/17 01:23:56;;;;;;;6.25;2.95;;;;;;;12.79;90.29;99939.63;4994216;28;20038;-71
2021/08/17 01:26:23;;;;;;;6.78;2.92;;;;;;;12.83;90.44;99946.94;4997272;28;20117;-70
2021/08/17 01:28:48;;;;;;;8.27;3.00;;;;;;;12.83;90.45;99935.34;4996947;28;20125;-70
2021/08/17 01:31:14;;;;;;;6.20;3.03;;;;;;;12.81;90.65;99932.88;4997467;28;20062;-70
2021/08/17 01:33:40;;;;;;;8.40;3.22;;;;;;;12.75;91.03;99936.59;4997277;28;20034;-70
2021/08/17 01:36:06;;;;;;;6.15;3.00;;;;;;;12.74;91.17;99921.44;4995376;28;20030;-70
2021/08/17 01:38:31;;;;;;;10.20;2.97;;;;;;;12.80;90.51;99930.44;4995205;28;20526;-70
2021/08/17 01:40:58;;;;;;;5.82;2.63;;;;;;;12.78;90.08;99914.47;4996957;28;20066;-70
2021/08/17 01:43:24;;;;;;;6.60;2.40;;;;;;;12.78;89.97;99914.47;4996800;28;20026;-70
2021/08/17 01:46:01;;;;;;;5.95;2.70;;;;;;;12.78;90.38;99906.34;4996641;28;20041;-70
2021/08/17 01:48:29;;;;;;;5.05;3.05;;;;;;;12.85;89.87;99906.16;4996809;28;20041;-71
2021/08/17 01:50:55;;;;;;;5.90;3.22;;;;;;;12.84;89.66;99905.34;4996536;28;20052;-71
2021/08/17 01:53:31;;;;;;;5.63;2.90;;;;;;;12.86;89.38;99905.91;4996626;28;20399;-71
2021/08/17 01:56:04;;;;;;;7.10;2.97;;;;;;;12.93;88.62;99899.47;4996457;28;20030;-71
2021/08/17 01:58:29;;;;;;;4.88;2.63;;;;;;;12.96;88.08;99902.50;4978868;28;20546;-70
2021/08/17 02:00:55;;;;;;;7.53;2.95;;;;;;;12.97;88.16;99896.03;4996292;28;20038;-71
2021/08/17 02:03:21;;;;;;;8.30;2.42;;;;;;;13.02;87.75;99897.94;4996160;28;20491;-70
2021/08/17 02:05:46;;;;;;;7.43;2.58;;;;;;;13.02;87.48;99898.78;4996188;28;20502;-70
2021/08/17 02:08:12;;;;;;;4.22;2.00;;;;;;;13.05;87.52;99899.34;4996053;28;20072;-70
2021/08/17 02:10:38;;;;;;;7.65;2.47;;;;;;;13.09;87.17;99884.25;4996208;28;20065;-70
2021/08/17 02:13:04;;;;;;;5.40;2.17;;;;;;;13.06;87.52;99874.72;4995977;28;20034;-70
2021/08/17 02:15:29;;;;;;;4.60;2.40;;;;;;;13.01;87.91;99874.69;4996081;28;20037;-70
2021/08/17 02:17:55;;;;;;;4.28;2.13;;;;;;;13.02;88.48;99890.66;4995719;28;20132;-70
2021/08/17 02:20:21;;;;;;;7.93;3.00;;;;;;;13.03;89.01;99881.47;4996130;28;20041;-70
2021/08/17 02:22:47;;;;;;;6.40;3.22;;;;;;;12.93;90.08;99875.97;4995712;28;20039;-70
2021/08/17 02:25:13;;;;;;;8.68;3.35;;;;;;;12.93;90.13;99881.38;4995963;28;20031;-71
2021/08/17 02:27:39;;;;;;;7.13;3.38;;;;;;;12.85;90.83;99876.44;4996100;28;20057;-71
2021/08/17 02:30:06;;;;;;;5.95;3.00;;;;;;;12.82;90.52;99871.53;4996014;28;20369;-70
2021/08/17 02:32:33;;;;;;;7.20;3.47;;;;;;;12.83;90.48;99870.47;4995977;28;20041;-70
2021/08/17 02:34:59;;;;;;;10.88;2.55;;;;;;;12.88;90.42;99865.91;4976982;28;20034;-70
2021/08/17 02:37:25;;;;;;;5.75;2.22;;;;;;;12.84;90.75;99866.69;4995315;28;20068;-70
2021/08/17 02:39:51;;;;;;;6.72;2.35;;;;;;;12.83;90.30;99860.47;4995508;28;20041;-70
2021/08/17 02:42:17;;;;;;;9.02;2.65;;;;;;;12.83;90.72;99844.25;4995139;28;20046;-70
2021/08/17 02:44:42;;;;;;;8.80;2.75;;;;;;;12.82;90.72;99839.09;4995403;28;20041;-71
2021/08/17 02:47:08;;;;;;;9.73;3.05;;;;;;;12.82;90.96;99836.41;4995543;28;20109;-70
2021/08/17 02:49:35;;;;;;;9.60;3.08;;;;;;;12.82;90.88;99849.91;4995556;28;20112;-70
2021/08/17 02:52:05;;;;;;;10.18;3.08;;;;;;;12.74;91.69;99853.88;4995617;28;20049;-71
2021/08/17 02:54:33;;;;;;;4.40;2.60;;;;;;;12.72;91.62;99848.75;4995481;28;20045;-70
2021/08/17 02:56:58;;;;;;;9.15;2.15;;;;;;;12.72;91.20;99848.75;4995317;28;20038;-70
2021/08/17 02:59:24;;;;;;;7.82;2.33;;;;;;;12.71;91.19;99839.00;4977848;28;20045;-70
2021/08/17 03:01:50;;;;;;;7.43;2.05;;;;;;;12.81;90.11;99832.06;4995500;28;20035;-71
2021/08/17 03:04:16;;;;;;;10.68;2.10;;;;;;;12.89;89.26;99837.00;4995114;28;20548;-70
2021/08/17 03:06:41;;;;;;;8.60;2.22;;;;;;;12.91;89.16;99832.16;4977526;28;20181;-71
2021/08/17 03:09:07;;;;;;;7.95;1.90;;;;;;;13.00;88.27;99836.03;4995204;28;20100;-71
2021/08/17 03:11:32;;;;;;;6.10;1.90;;;;;;;13.00;88.56;99837.91;4994977;28;20086;-70
2021/08/17 03:13:58;;;;;;;6.85;2.17;;;;;;;13.02;87.99;99828.47;4995208;28;20038;-70
2021/08/17 03:16:25;;;;;;;4.80;1.80;;;;;;;13.06;87.82;99820.66;4995234;28;20036;-70
2021/08/17 03:18:50;;;;;;;4.45;1.70;;;;;;;13.09;87.18;99819.34;4995398;28;20046;-70
2021/08/17 03:21:16;;;;;;;4.57;1.20;;;;;;;13.13;87.10;99832.06;4994918;28;20035;-71
2021/08/17 03:23:42;;;;;;;2.88;1.13;;;;;;;13.10;87.14;99827.19;4977806;28;20040;-71
2021/08/17 03:26:09;;;;;;;3.80;1.20;;;;;;;13.14;86.69;99827.50;4995487;28;20062;-71
2021/08/17 03:28:35;;;;;;;3.20;1.00;;;;;;;13.17;86.29;99825.06;4994949;28;20042;-70
2021/08/17 03:31:01;;;;;;;1.23;0.60;;;;;;;13.20;86.29;99814.81;4994656;28;20361;-70
2021/08/17 03:33:26;;;;;;;5.18;1.10;;;;;;;13.20;86.86;99812.13;4994794;28;20523;-71
2021/08/17 03:35:52;;;;;;;3.28;0.80;;;;;;;13.21;86.85;99811.03;4994640;28;20070;-71
2021/08/17 03:38:18;;;;;;;1.73;0.70;;;;;;;13.18;87.03;99806.97;4994525;28;20042;-71
2021/08/17 03:40:45;;;;;;;4.18;0.70;;;;;;;13.18;86.78;99791.56;4994817;28;20033;-71
2021/08/17 03:43:11;;;;;;;4.32;0.80;;;;;;;13.21;87.04;99792.94;4994504;28;20101;-71
2021/08/17 03:45:37;;;;;;;3.22;1.23;;;;;;;13.22;86.92;99801.84;4994753;28;20069;-71
2021/08/17 03:48:03;;;;;;;2.03;0.90;;;;;;;13.20;87.41;99791.31;4994167;28;20030;-71
2021/08/17 03:50:29;;;;;;;1.65;1.00;;;;;;;13.12;87.64;99786.38;4976707;28;20515;-71
2021/08/17 03:52:54;;;;;;;7.43;1.30;;;;;;;13.16;87.36;99806.41;4994778;28;20038;-71
2021/08/17 03:55:20;;;;;;;4.35;1.02;;;;;;;13.16;87.76;99796.41;4993943;28;20055;-71
2021/08/17 03:57:46;;;;;;;2.80;1.20;;;;;;;13.16;88.12;99790.19;4994884;28;20042;-71
2021/08/17 04:00:14;;;;;;;4.88;1.30;;;;;;;13.16;88.02;99785.59;4994221;28;20034;-71
2021/08/17 04:02:44;;;;;;;4.85;1.40;;;;;;;13.20;87.91;99787.78;4994376;28;20054;-71
2021/08/17 04:05:10;;;;;;;4.85;1.95;;;;;;;13.18;87.99;99788.84;4993688;28;20411;-70
2021/08/17 04:07:36;;;;;;;2.58;1.70;;;;;;;13.20;87.90;99775.06;4994311;28;20045;-71
2021/08/17 04:10:03;;;;;;;5.13;2.00;;;;;;;13.16;88.12;99769.34;4994221;28;20030;-71
2021/08/17 04:12:29;;;;;;;3.55;1.92;;;;;;;13.16;87.98;99769.34;4993990;28;20105;-71
2021/08/17 04:14:55;;;;;;;4.93;2.08;;;;;;;13.13;88.68;99769.88;4993956;28;20484;-71
2021/08/17 04:17:21;;;;;;;2.95;2.20;;;;;;;13.11;88.99;99776.63;4993898;28;20044;-71
2021/08/17 04:19:47;;;;;;;2.55;2.05;;;;;;;13.08;88.86;99769.84;4994134;28;20538;-70
2021/08/17 04:22:12;;;;;;;2.83;1.95;;;;;;;13.05;89.66;99767.66;4994025;28;20031;-71
2021/08/17 04:24:38;;;;;;;3.67;1.55;;;;;;;13.07;89.13;99760.09;4993948;28;20101;-71
2021/08/17 04:27:04;;;;;;;2.38;1.33;;;;;;;13.05;89.26;99764.94;4993857;28;20042;-71
2021/08/17 04:29:29;;;;;;;2.00;1.30;;;;;;;13.07;89.29;99765.50;4993502;28;20043;-71
2021/08/17 04:31:55;;;;;;;2.17;1.30;;;;;;;13.08;89.58;99769.84;4993551;28;20049;-71
2021/08/17 04:34:21;;;;;;;2.67;1.15;;;;;;;13.01;89.87;99771.94;4993919;28;20113;-72
2021/08/17 04:36:47;;;;;;;2.50;1.13;;;;;;;12.94;90.35;99764.06;4993412;28;20100;-71
2021/08/17 04:39:13;;;;;;;2.22;1.00;;;;;;;13.02;89.98;99777.09;4994266;28;20057;-71
2021/08/17 04:41:39;;;;;;;1.45;0.50;;;;;;;13.08;88.54;99769.03;4993416;28;20031;-71
2021/08/17 04:44:05;;;;;;;1.65;0.65;;;;;;;13.09;88.31;99767.97;4993848;28;20038;-71
2021/08/17 04:46:31;;;;;;;2.78;0.80;;;;;;;13.14;88.35;99768.81;4993585;28;20443;-71
2021/08/17 04:48:56;;;;;;;6.32;0.65;;;;;;;13.16;88.68;99766.66;4993456;28;20066;-71
2021/08/17 04:51:23;;;;;;;1.90;0.50;;;;;;;13.13;89.87;99763.66;4993463;28;20030;-71
2021/08/17 04:53:49;;;;;;;1.50;0.40;;;;;;;13.18;88.42;99769.13;4993406;28;20038;-71
2021/08/17 04:56:15;;;;;;;0.85;0.40;;;;;;;13.12;88.79;99767.44;4993704;28;20113;-71
2021/08/17 04:58:41;;;;;;;0.68;0.30;;;;;;;13.21;88.44;99770.47;4993902;28;20125;-71
2021/08/17 05:01:06;;;;;;;0.93;0.30;;;;;;;13.27;87.54;99778.38;4997771;28;20035;-71
2021/08/17 05:03:33;;;;;;;0.28;0.28;;;;;;;13.26;88.18;99776.75;4997519;28;20046;-71
2021/08/17 05:05:58;;;;;;;2.90;0.25;;;;;;;13.25;87.34;99779.69;4997337;28;20058;-71
2021/08/17 05:08:24;;;;;;;0.32;0.22;;;;;;;13.31;87.26;99778.69;4997871;28;20353;-71
2021/08/17 05:10:50;;;;;;;1.08;0.20;;;;;;;13.25;87.38;99777.00;4997002;28;20392;-71
2021/08/17 05:13:16;;;;;;;0.30;0.30;;;;;;;13.21;88.01;99770.47;4997189;28;20112;-71
2021/08/17 05:15:41;;;;;;;0.70;0.40;;;;;;;13.26;88.30;99767.84;4997264;28;20483;-71
2021/08/17 05:18:07;;;;;;;3.70;0.22;;;;;;;13.24;88.96;99775.34;4979741;28;20464;-71
2021/08/17 05:20:32;;;;;;;1.23;0.40;;;;;;;13.17;89.94;99767.50;4997378;28;20039;-71
2021/08/17 05:22:59;;;;;;;0.10;0.10;;;;;;;13.03;90.91;99770.63;4996855;28;20042;-69
2021/08/17 05:25:24;;;;;;;0.10;0.10;;;;;;;12.94;91.80;99766.78;4997351;28;20097;-72
2021/08/17 05:27:53;;;;;;;0.52;0.20;;;;;;;12.91;92.43;99759.19;4997261;28;20035;-73
2021/08/17 05:30:19;;;;;;;1.05;0.30;;;;;;;12.76;92.99;99762.56;4996851;28;20113;-74
2021/08/17 05:32:44;;;;;;;0.65;0.20;;;;;;;12.82;94.15;99756.13;4996855;28;20073;-74
2021/08/17 05:35:10;;;;;;;0.40;0.30;;;;;;;12.87;94.51;99747.25;4996824;28;20134;-74
2021/08/17 05:37:36;;;;;;;0.22;0.22;;;;;;;12.82;93.60;99750.72;4997285;28;20499;-73
2021/08/17 05:40:03;;;;;;;0.40;0.20;;;;;;;12.77;93.18;99741.75;4996694;28;20468;-73
2021/08/17 05:42:29;;;;;;;0.10;0.10;;;;;;;12.76;93.53;99753.66;4996748;28;20488;-74
2021/08/17 05:44:55;;;;;;;0.30;0.22;;;;;;;12.77;93.76;99757.97;4996828;28;20490;-73
2021/08/17 05:47:20;;;;;;;0.63;0.20;;;;;;;12.77;93.78;99764.19;4996748;28;20122;-73
2021/08/17 05:49:47;;;;;;;0.10;0.10;;;;;;;12.81;93.12;99750.97;4997547;28;20476;-71
2021/08/17 05:52:15;;;;;;;1.23;0.30;;;;;;;12.84;93.52;99743.16;4997006;28;20121;-72
2021/08/17 05:54:41;;;;;;;1.25;0.30;;;;;;;12.81;93.33;99757.19;4996571;28;20027;-72
2021/08/17 05:57:07;;;;;;;0.30;0.30;;;;;;;12.83;92.66;99757.75;4996174;28;20073;-72
2021/08/17 05:59:33;;;;;;;1.85;0.32;;;;;;;12.84;92.68;99753.16;4996690;28;20042;-72
2021/08/17 06:02:01;;;;;;;0.85;0.40;;;;;;;12.89;93.75;99751.31;4996456;28;20038;-72
2021/08/17 06:04:27;;;;;;;0.43;0.30;;;;;;;12.95;93.72;99745.94;4995922;28;20062;-72
2021/08/17 06:06:53;;;;;;;0.60;0.60;;;;;;;13.00;94.12;99754.09;4996011;28;20046;-72
2021/08/17 06:09:20;;;;;;;0.40;0.20;;;;;;;13.01;92.75;99751.16;4996157;28;20088;-72
2021/08/17 06:11:48;;;;;;;0.30;0.30;;;;;;;13.05;92.46;99751.44;4996274;28;20108;-72
2021/08/17 06:14:14;;;;;;;0.90;0.30;;;;;;;13.12;90.76;99752.03;4995955;28;20041;-71
2021/08/17 06:16:40;;;;;;;0.38;0.30;;;;;;;13.08;91.77;99763.63;4996164;28;20023;-71
2021/08/17 06:19:06;;;;;;;0.75;0.20;;;;;;;13.13;91.56;99750.94;4996141;28;20056;-71
2021/08/17 06:21:32;;;;;;;0.20;0.20;;;;;;;13.15;91.74;99766.94;4996346;28;20489;-71
2021/08/17 06:23:58;;;;;;;0.73;0.13;;;;;;;13.24;89.93;99759.13;4996341;28;20037;-71
2021/08/17 06:26:24;;;;;;;0.13;0.13;;;;;;;13.20;90.98;99755.31;4996012;28;20030;-72
2021/08/17 06:28:50;;;;;;;1.75;0.32;;;;;;;13.25;89.68;99756.19;4996364;28;20035;-72
2021/08/17 06:31:23;;;;;;;1.98;0.30;;;;;;;13.29;89.51;99753.78;4995879;28;20043;-72
2021/08/17 06:33:59;;;;;;;0.10;0.10;;;;;;;13.31;89.69;99748.94;4996128;28;20049;-72
2021/08/17 06:36:25;;;;;;;6.43;0.20;;;;;;;13.37;88.93;99749.75;4995938;28;20044;-72
2021/08/17 06:38:51;;;;;;;1.70;0.20;;;;;;;13.41;89.12;99756.28;4996031;28;20124;-71
2021/08/17 06:41:17;;;;;;;1.15;0.30;;;;;;;13.49;88.50;99758.53;4995495;28;20030;-72
2021/08/17 06:43:42;;;;;;;0.68;0.28;;;;;;;13.50;88.63;99753.94;4995733;28;20044;-71
2021/08/17 06:46:08;;;;;;;0.30;0.20;;;;;;;13.52;89.15;99759.91;4995938;28;20037;-71
2021/08/17 06:48:34;;;;;;;0.10;0.10;;;;;;;13.54;88.89;99758.56;4995509;28;20105;-72
2021/08/17 06:51:00;;;;;;;0.63;0.20;;;;;;;13.58;89.21;99758.88;4995453;28;20440;-71
2021/08/17 06:53:26;;;;;;;1.05;0.20;;;;;;;13.62;88.95;99759.97;4995309;28;20026;-71
2021/08/17 06:55:52;;;;;;;0.20;0.10;;;;;;;13.63;87.93;99761.59;4995434;28;20031;-71
2021/08/17 06:58:18;;;;;;;0.03;0.03;;;;;;;13.66;88.51;99752.13;4994969;28;20113;-71
2021/08/17 07:00:46;;;;;;;2.92;0.20;;;;;;;13.64;88.63;99765.09;4995312;28;20420;-71
2021/08/17 07:03:13;;;;;;;1.95;0.17;;;;;;;13.65;88.13;99761.31;4995634;28;20034;-71
2021/08/17 07:05:43;;;;;;;0.20;0.20;;;;;;;13.62;89.00;99768.09;4994859;28;20404;-71
2021/08/17 07:08:10;;;;;;;0.95;0.20;;;;;;;13.70;87.95;99769.47;4995594;28;20042;-70
2021/08/17 07:10:37;;;;;;;1.92;0.40;;;;;;;13.71;88.43;99769.22;4994807;28;20037;-71
2021/08/17 07:13:03;;;;;;;1.23;0.43;;;;;;;13.70;88.05;99766.75;4995090;28;20039;-71
2021/08/17 07:15:29;;;;;;;1.50;0.30;;;;;;;13.72;88.75;99767.31;4995135;28;20070;-71
2021/08/17 07:17:54;;;;;;;1.42;0.40;;;;;;;13.80;88.83;99766.00;4994655;28;20080;-71
2021/08/17 07:20:20;;;;;;;4.00;0.32;;;;;;;13.91;87.37;99771.19;4994968;28;20030;-70
2021/08/17 07:22:46;;;;;;;3.05;0.43;;;;;;;13.90;88.53;99766.84;4994337;28;20038;-71
2021/08/17 07:25:12;;;;;;;2.70;0.28;;;;;;;13.96;87.70;99759.59;4994738;28;20503;-71
2021/08/17 07:27:38;;;;;;;1.08;0.17;;;;;;;14.13;87.30;99764.78;4994947;28;20037;-71
2021/08/17 07:30:06;;;;;;;0.47;0.20;;;;;;;14.23;85.83;99755.88;4994618;28;20030;-70
2021/08/17 07:36:18;;;;;;;0.65;0.30;;;;;;;14.27;85.98;99767.81;4994525;28;20392;-72
2021/08/17 07:38:44;;;;;;;0.80;0.20;;;;;;;14.34;85.96;99773.00;4994804;28;20042;-71
2021/08/17 07:41:10;;;;;;;0.60;0.20;;;;;;;14.39;85.35;99769.47;4994780;28;20030;-71
2021/08/17 07:43:36;;;;;;;0.40;0.20;;;;;;;14.36;85.88;99765.41;4994340;28;20031;-70
2021/08/17 07:49:50;;;;;;;0.93;0.30;;;;;;;14.29;84.58;99762.13;4994718;28;20157;-70
2021/08/17 07:52:16;;;;;;;1.05;0.22;;;;;;;14.34;84.86;99760.25;4994503;28;20456;-71
2021/08/17 07:54:41;;;;;;;1.85;0.28;;;;;;;14.41;83.88;99759.16;4994180;28;20048;-70
2021/08/17 07:57:07;;;;;;;1.50;0.30;;;;;;;14.42;84.56;99748.06;4994782;28;20032;-70
2021/08/17 07:59:33;;;;;;;1.10;0.30;;;;;;;14.56;84.27;99756.50;4994547;28;20415;-70
2021/08/17 08:01:59;;;;;;;0.45;0.30;;;;;;;14.59;84.93;99757.88;4993080;28;20511;-70
2021/08/17 08:04:24;;;;;;;0.40;0.10;;;;;;;14.70;84.39;99756.00;4994447;28;20097;-70
2021/08/17 08:06:50;;;;;;;0.98;0.40;;;;;;;14.77;84.61;99760.06;4994015;28;20476;-71
2021/08/17 08:09:15;;;;;;;1.55;0.65;;;;;;;14.89;83.25;99761.72;4994034;28;20373;-71
2021/08/17 08:11:41;;;;;;;1.35;0.47;;;;;;;14.95;83.36;99765.22;4994100;28;20038;-71
2021/08/17 08:14:07;;;;;;;2.13;0.30;;;;;;;15.13;81.79;99761.16;4994036;28;20030;-71
2021/08/17 08:16:33;;;;;;;1.23;0.40;;;;;;;15.07;83.33;99757.66;4994119;28;20034;-71
2021/08/17 08:18:58;;;;;;;1.95;0.30;;;;;;;15.08;81.84;99754.66;4994101;28;20038;-71
2021/08/17 08:21:24;;;;;;;1.77;0.43;;;;;;;14.87;82.23;99753.03;4993976;28;20507;-71
2021/08/17 08:23:49;;;;;;;1.55;0.50;;;;;;;14.87;83.39;99758.47;4993733;28;20484;-71
2021/08/17 08:26:15;;;;;;;1.38;0.40;;;;;;;14.81;83.18;99754.13;4993843;28;20553;-71
2021/08/17 08:28:41;;;;;;;0.77;0.50;;;;;;;14.81;83.07;99759.53;4994110;28;20049;-71
2021/08/17 08:31:06;;;;;;;1.02;0.43;;;;;;;14.83;83.47;99758.16;4993657;28;20030;-71
2021/08/17 08:33:31;;;;;;;1.40;0.55;;;;;;;14.82;81.81;99755.75;4993667;28;20062;-71
2021/08/17 08:35:57;;;;;;;1.67;0.55;;;;;;;14.89;82.36;99767.94;4993915;28;20038;-71
2021/08/17 08:42:19;;;;;;;3.13;0.75;;;;;;;14.80;83.12;99766.03;4993981;28;20114;-71
2021/08/17 08:44:45;;;;;;;2.00;0.57;;;;;;;14.87;82.83;99774.72;4993414;28;20472;-71
2021/08/17 08:47:10;;;;;;;0.95;0.50;;;;;;;14.95;82.38;99774.19;4993515;28;20022;-71
2021/08/17 08:49:41;;;;;;;1.70;0.57;;;;;;;15.10;82.54;99776.09;4994066;28;20383;-71
2021/08/17 08:52:07;;;;;;;1.20;0.43;;;;;;;15.07;81.58;99779.34;4993678;28;20113;-71
2021/08/17 08:58:26;;;;;;;2.13;0.55;;;;;;;15.28;81.67;99780.13;4993337;28;20049;-70
2021/08/17 09:00:52;;;;;;;1.40;0.35;;;;;;;15.29;81.58;99770.91;4993396;28;20066;-70
2021/08/17 09:07:05;;;;;;;3.60;0.60;;;;;;;15.39;81.48;99780.94;4990142;28;20629;-70
2021/08/17 09:09:31;;;;;;;4.15;0.30;;;;;;;15.50;80.40;99776.31;4993706;28;20043;-70
2021/08/17 09:11:59;;;;;;;0.47;0.20;;;;;;;15.52;80.11;99768.69;4993229;28;20031;-70
2021/08/17 09:14:28;;;;;;;2.47;0.57;;;;;;;15.45;80.16;99777.13;4993028;28;20038;-71
2021/08/17 09:16:56;;;;;;;0.63;0.38;;;;;;;15.51;80.57;99778.75;4993997;28;20109;-70
2021/08/17 09:19:42;;;;;;;0.77;0.30;;;;;;;15.51;80.90;99780.63;4993275;28;20081;-70
2021/08/17 09:22:19;;;;;;;0.35;0.35;;;;;;;15.40;80.66;99777.16;4993217;28;20103;-70
2021/08/17 09:24:48;;;;;;;2.08;0.50;;;;;;;15.27;80.54;99780.44;4993328;28;20034;-70
2021/08/17 09:27:20;;;;;;;1.85;0.50;;;;;;;15.27;82.22;99783.94;4993422;28;20104;-70
2021/08/17 09:29:48;;;;;;;1.08;0.20;;;;;;;15.24;80.75;99770.91;4993160;28;20041;-70
2021/08/17 09:36:03;;;;;;;1.27;0.40;;;;;;;15.33;81.79;99765.75;4993442;28;20192;-70
2021/08/17 09:38:31;;;;;;;0.82;0.40;;;;;;;15.66;79.91;99769.75;4975594;28;20053;-72
2021/08/17 09:41:16;;;;;;;1.40;0.50;;;;;;;15.97;79.10;99773.50;4993439;28;20121;-71
2021/08/17 09:44:03;;;;;;;1.25;0.50;;;;;;;16.30;77.56;99771.16;4993263;28;20164;-71
2021/08/17 09:46:32;;;;;;;1.60;0.57;;;;;;;16.38;77.36;99765.16;4996684;28;20097;-71
2021/08/17 09:52:45;;;;;;;1.45;0.50;;;;;;;16.81;75.93;99745.56;4997053;28;20052;-71
2021/08/17 09:55:28;;;;;;;1.70;0.70;;;;;;;16.72;75.83;99742.63;4996308;28;20042;-71
2021/08/17 09:57:54;;;;;;;0.57;0.55;;;;;;;16.80;75.14;99746.66;4996542;28;20034;-71
2021/08/17 10:00:19;;;;;;;1.27;0.40;;;;;;;16.69;76.16;99759.50;4996231;28;20046;-71
2021/08/17 10:02:47;;;;;;;1.63;0.60;;;;;;;17.04;74.98;99765.00;4996613;28;20030;-71
2021/08/17 10:05:14;;;;;;;1.40;0.50;;;;;;;16.81;74.73;99765.41;4996578;28;20552;-70
2021/08/17 10:07:42;;;;;;;1.10;0.40;;;;;;;17.07;74.39;99757.06;4996209;28;20516;-71
2021/08/17 10:10:11;;;;;;;0.77;0.50;;;;;;;17.10;73.97;99759.19;4996409;28;20038;-71
2021/08/17 10:12:37;;;;;;;0.50;0.40;;;;;;;17.10;73.62;99755.69;4996473;28;20089;-71
2021/08/17 10:15:07;;;;;;;0.75;0.30;;;;;;;17.13;73.88;99766.00;4996214;28;20030;-71
2021/08/17 10:17:32;;;;;;;1.02;0.40;;;;;;;16.81;74.81;99759.16;4996173;28;20040;-71
2021/08/17 10:19:58;;;;;;;0.90;0.40;;;;;;;16.97;76.62;99762.59;4997003;28;20113;-71
2021/08/17 10:22:24;;;;;;;0.47;0.40;;;;;;;17.15;75.84;99769.25;4996477;28;20038;-71
2021/08/17 10:24:50;;;;;;;1.27;0.40;;;;;;;17.24;73.92;99766.69;4995982;28;20041;-72
2021/08/17 10:27:20;;;;;;;0.55;0.40;;;;;;;17.22;74.91;99767.00;4995956;28;20038;-71
2021/08/17 10:30:10;;;;;;;1.15;0.52;;;;;;;17.32;74.27;99768.78;4996054;28;20039;-71
2021/08/17 10:32:50;;;;;;;0.85;0.40;;;;;;;17.31;74.89;99774.53;4996082;28;20057;-70
2021/08/17 10:38:16;;;;;;;0.60;0.30;;;;;;;17.21;74.80;99759.09;4995516;28;20042;-71
2021/08/17 10:40:48;;;;;;;3.05;0.40;;;;;;;17.22;73.08;99772.44;4995504;28;20042;-70
2021/08/17 10:43:13;;;;;;;1.42;0.45;;;;;;;17.23;73.69;99776.78;4995719;28;20034;-71
2021/08/17 10:45:49;;;;;;;1.02;0.52;;;;;;;17.39;73.43;99765.75;4995609;28;20550;-71
2021/08/17 10:48:46;;;;;;;4.97;0.80;;;;;;;17.42;73.80;99757.00;4977887;28;20042;-71
2021/08/17 10:51:32;;;;;;;0.88;0.40;;;;;;;17.18;72.48;99757.78;4995583;28;20034;-71
2021/08/17 10:54:03;;;;;;;1.15;0.40;;;;;;;17.27;72.53;99755.25;4995719;28;20097;-71
2021/08/17 10:56:34;;;;;;;2.33;0.35;;;;;;;17.63;72.50;99757.59;4994831;28;20066;-70
2021/08/17 10:59:00;;;;;;;1.58;0.40;;;;;;;17.62;71.85;99750.50;4995878;28;20058;-70
2021/08/17 11:01:34;;;;;;;1.20;0.60;;;;;;;17.42;72.10;99740.66;4995563;28;20046;-70
2021/08/17 11:04:18;;;;;;;1.70;0.55;;;;;;;17.50;71.62;99752.81;4995435;28;20093;-70
2021/08/17 11:06:47;;;;;;;1.10;0.30;;;;;;;17.33;71.46;99748.66;4995078;28;20046;-70
2021/08/17 11:09:15;;;;;;;1.45;0.55;;;;;;;17.20;73.37;99752.03;4995229;28;20085;-71
2021/08/17 11:11:45;;;;;;;0.75;0.38;;;;;;;17.58;73.42;99745.94;4995308;28;20484;-70
2021/08/17 11:14:19;;;;;;;1.13;0.40;;;;;;;17.81;71.42;99744.34;4994929;28;20038;-70
2021/08/17 11:16:49;;;;;;;4.38;0.50;;;;;;;17.65;71.55;99736.31;4995443;28;20040;-71
2021/08/17 11:19:15;;;;;;;0.75;0.40;;;;;;;17.74;72.76;99719.38;4994599;28;20377;-71
2021/08/17 11:21:51;;;;;;;1.10;0.45;;;;;;;17.74;71.88;99732.97;4995279;28;20087;-70
2021/08/17 11:24:31;;;;;;;0.70;0.30;;;;;;;17.67;70.05;99725.16;4994223;28;20046;-71
2021/08/17 11:26:58;;;;;;;2.75;0.38;;;;;;;17.74;69.92;99732.97;4995067;28;20038;-70
2021/08/17 11:29:26;;;;;;;0.70;0.30;;;;;;;17.60;70.45;99722.75;4994701;28;20096;-71
2021/08/17 11:31:54;;;;;;;1.88;0.30;;;;;;;17.77;71.55;99721.50;4994593;28;20381;-70
2021/08/17 11:38:21;;;;;;;0.30;0.30;;;;;;;17.91;69.11;99719.69;4994605;28;20424;-70
2021/08/17 11:40:47;;;;;;;1.63;0.40;;;;;;;17.70;70.13;99730.00;4994980;28;20037;-70
2021/08/17 11:43:16;;;;;;;1.05;0.30;;;;;;;18.01;70.93;99737.84;4994658;28;20026;-71
2021/08/17 11:45:41;;;;;;;0.60;0.40;;;;;;;18.23;69.77;99731.00;4994579;28;20085;-71
2021/08/17 11:48:07;;;;;;;0.35;0.30;;;;;;;18.25;70.34;99745.16;4994598;28;20121;-71
2021/08/17 11:54:26;;;;;;;2.78;0.50;;;;;;;18.71;68.31;99728.13;4994628;28;20162;-71
2021/08/17 11:56:57;;;;;;;0.68;0.28;;;;;;;18.73;66.60;99725.91;4994822;28;20063;-70
2021/08/17 11:59:23;;;;;;;4.43;0.50;;;;;;;18.29;68.18;99722.47;4994559;28;20476;-71
2021/08/17 12:02:01;;;;;;;0.20;0.20;;;;;;;18.33;68.96;99744.47;4994160;28;20468;-71
2021/08/17 12:04:27;;;;;;;0.57;0.40;;;;;;;18.23;69.10;99742.72;4994224;28;20366;-71
2021/08/17 12:07:13;;;;;;;0.75;0.40;;;;;;;18.48;68.12;99751.66;4993822;28;20113;-71
2021/08/17 12:09:43;;;;;;;0.80;0.40;;;;;;;18.40;68.07;99747.66;4994162;28;20034;-71
2021/08/17 12:12:11;;;;;;;0.50;0.30;;;;;;;17.96;68.77;99746.88;4994481;28;20061;-71